Bay Terrace, New York
Current Conditions -  °F | °C
As of 4:51 PM on Friday 19 Dec 2014 (Local Time) from KLGA Reporting Station
Scattered Clouds Scattered Clouds  
Wind Chill: 24°   Ceiling: Unl
Heat Index: 35°   Visibility: 10mi
Dew Point: 22°   Wind: 22mph
Humidity: 59%   Direction: 310°NW
Pressure: 30.09"   Gusts: 28mph
Location:  40.7825°N, 73.7809°W
Report Text: KLGA 192151Z 31019G24KT 10SM SCT040 02/M06 A3009 RMK AO2 SLP188 T00171056
Loading
Personal Weather Stations






























Interactive Weather Map New forecast layout! Learn more

10-Day Weather Forecast

Advertisements
Track Severe Weather on mobile